createdAt,value
2017-04-30T00:00:20.583Z,0
2017-04-30T00:01:01.225Z,0
2017-04-30T00:01:41.887Z,0
2017-04-30T00:02:22.556Z,0
2017-04-30T00:03:03.186Z,0
2017-04-30T00:03:43.837Z,0
2017-04-30T00:04:24.516Z,0
2017-04-30T00:05:05.152Z,0
2017-04-30T00:05:45.795Z,0
2017-04-30T00:06:26.449Z,0
2017-04-30T00:07:07.109Z,0
2017-04-30T00:07:48.780Z,0
2017-04-30T00:08:29.439Z,0
2017-04-30T00:09:10.123Z,0
2017-04-30T00:09:50.751Z,0
2017-04-30T00:10:31.391Z,0
2017-04-30T00:11:12.048Z,0
2017-04-30T00:11:52.710Z,0
2017-04-30T00:12:33.362Z,0
2017-04-30T00:13:15.042Z,0
2017-04-30T00:13:55.705Z,0
2017-04-30T00:14:36.368Z,0
2017-04-30T00:15:18.012Z,0
2017-04-30T00:15:58.708Z,0
2017-04-30T00:16:39.280Z,0
2017-04-30T00:17:19.875Z,0
2017-04-30T00:18:00.532Z,0
2017-04-30T00:18:41.120Z,0
2017-04-30T00:19:21.745Z,0
2017-04-30T00:20:02.422Z,0
2017-04-30T00:20:43.054Z,0
2017-04-30T00:21:23.696Z,0
2017-04-30T00:22:04.353Z,0
2017-04-30T00:22:45.009Z,0
2017-04-30T00:23:25.653Z,0
2017-04-30T00:24:06.303Z,0
2017-04-30T00:24:46.998Z,0
2017-04-30T00:25:28.649Z,0
2017-04-30T00:26:09.320Z,0
2017-04-30T00:26:49.917Z,0
2017-04-30T00:27:30.588Z,0
2017-04-30T00:28:11.244Z,0
2017-04-30T00:28:51.845Z,0
2017-04-30T00:29:32.403Z,0
2017-04-30T00:30:13.061Z,0
2017-04-30T00:30:53.644Z,0
2017-04-30T00:31:35.246Z,0
2017-04-30T00:32:15.899Z,0
2017-04-30T00:32:56.534Z,0
2017-04-30T00:33:37.184Z,0
2017-04-30T00:34:17.855Z,0
2017-04-30T00:34:58.498Z,0
2017-04-30T00:35:39.200Z,0
2017-04-30T00:36:19.867Z,0
2017-04-30T00:37:00.522Z,0
2017-04-30T00:37:41.196Z,0
2017-04-30T00:38:21.815Z,0
2017-04-30T00:39:02.463Z,0
2017-04-30T00:39:43.123Z,0
2017-04-30T00:40:23.784Z,0
2017-04-30T00:41:04.472Z,0
2017-04-30T00:41:45.027Z,0
2017-04-30T00:42:25.729Z,0
2017-04-30T00:43:06.384Z,0
2017-04-30T00:43:47.088Z,0
2017-04-30T00:44:27.645Z,0
2017-04-30T00:45:08.348Z,0
2017-04-30T00:45:49.002Z,0
2017-04-30T00:46:29.658Z,0
2017-04-30T00:47:10.309Z,0
2017-04-30T00:47:50.952Z,0
2017-04-30T00:48:32.784Z,0
2017-04-30T00:49:13.414Z,0
2017-04-30T00:49:54.048Z,0
2017-04-30T00:50:34.692Z,0
2017-04-30T00:51:15.345Z,0
2017-04-30T00:51:56.002Z,0
2017-04-30T00:52:36.678Z,0
2017-04-30T00:53:17.305Z,0
2017-04-30T00:53:57.958Z,0
2017-04-30T00:54:38.640Z,0
2017-04-30T00:55:19.282Z,0
2017-04-30T00:55:59.918Z,0
2017-04-30T00:56:40.570Z,0
2017-04-30T00:57:21.220Z,0
2017-04-30T00:58:01.882Z,0
2017-04-30T00:58:42.558Z,0
2017-04-30T00:59:23.190Z,0
2017-04-30T01:00:03.850Z,0
2017-04-30T01:00:44.485Z,0
2017-04-30T01:01:25.141Z,0
2017-04-30T01:02:05.801Z,0
2017-04-30T01:02:46.446Z,0
2017-04-30T01:03:27.206Z,0
2017-04-30T01:04:07.866Z,0
2017-04-30T01:04:48.512Z,0
2017-04-30T01:05:29.158Z,0
2017-04-30T01:06:09.863Z,0
2017-04-30T01:06:50.538Z,0
2017-04-30T01:07:31.235Z,0
2017-04-30T01:08:11.888Z,0
2017-04-30T01:08:52.573Z,0
2017-04-30T01:09:33.154Z,0
2017-04-30T01:10:13.841Z,0
2017-04-30T01:10:54.485Z,0
2017-04-30T01:11:35.049Z,0
2017-04-30T01:12:15.700Z,0
2017-04-30T01:12:56.355Z,0
2017-04-30T01:13:36.930Z,0
2017-04-30T01:14:17.548Z,0
2017-04-30T01:14:58.203Z,0
2017-04-30T01:15:38.807Z,0
2017-04-30T01:16:19.515Z,0
2017-04-30T01:17:00.173Z,0
2017-04-30T01:17:40.864Z,0
2017-04-30T01:18:21.440Z,0
2017-04-30T01:19:02.118Z,0
2017-04-30T01:19:42.783Z,0
2017-04-30T01:20:23.471Z,0
2017-04-30T01:21:04.087Z,0
2017-04-30T01:21:44.743Z,0
2017-04-30T01:22:25.394Z,0
2017-04-30T01:23:06.047Z,0
2017-04-30T01:23:46.698Z,0
2017-04-30T01:24:27.360Z,0
2017-04-30T01:25:08.009Z,0
2017-04-30T01:25:48.698Z,0
2017-04-30T01:26:29.273Z,0
2017-04-30T01:27:09.956Z,0
2017-04-30T01:27:50.618Z,0
2017-04-30T01:28:31.308Z,0
2017-04-30T01:29:11.877Z,0
2017-04-30T01:29:52.587Z,0
2017-04-30T01:30:33.335Z,0
2017-04-30T01:31:13.997Z,0
2017-04-30T01:31:54.670Z,0
2017-04-30T01:32:35.348Z,0
2017-04-30T01:33:16.057Z,0
2017-04-30T01:33:56.709Z,0
2017-04-30T01:34:37.361Z,0
2017-04-30T01:35:18.110Z,0
2017-04-30T01:35:59.822Z,0
2017-04-30T01:36:40.392Z,0
2017-04-30T01:37:21.154Z,0
2017-04-30T01:38:01.853Z,0
2017-04-30T01:38:42.541Z,0
2017-04-30T01:39:23.100Z,0
2017-04-30T01:40:03.813Z,0
2017-04-30T01:40:44.455Z,0
2017-04-30T01:41:25.109Z,0
2017-04-30T01:42:05.780Z,0
2017-04-30T01:42:46.429Z,0
2017-04-30T01:43:27.069Z,0
2017-04-30T01:44:07.730Z,0
2017-04-30T01:44:48.386Z,0
2017-04-30T01:45:29.046Z,0
2017-04-30T01:46:10.795Z,0
2017-04-30T01:46:51.467Z,0
2017-04-30T01:47:32.124Z,0
2017-04-30T01:48:12.762Z,0
2017-04-30T01:48:53.458Z,0
2017-04-30T01:49:34.076Z,0
2017-04-30T01:50:14.735Z,0
2017-04-30T01:50:55.311Z,0
2017-04-30T01:51:36.034Z,0
2017-04-30T01:52:16.675Z,0
2017-04-30T01:52:57.235Z,0
2017-04-30T01:53:37.901Z,0
2017-04-30T01:54:18.537Z,0
2017-04-30T01:54:59.121Z,0
2017-04-30T01:55:39.734Z,0
2017-04-30T01:56:20.395Z,0
2017-04-30T01:57:01.088Z,0
2017-04-30T01:57:41.690Z,0
2017-04-30T01:58:22.346Z,0
2017-04-30T01:59:03.027Z,0
2017-04-30T01:59:43.709Z,0
2017-04-30T02:00:24.278Z,0
2017-04-30T02:01:04.965Z,0
2017-04-30T02:01:46.648Z,0
2017-04-30T02:02:27.337Z,0
2017-04-30T02:03:07.939Z,0
2017-04-30T02:03:48.605Z,0
2017-04-30T02:04:29.260Z,0
2017-04-30T02:05:09.947Z,0
2017-04-30T02:05:50.520Z,0
2017-04-30T02:06:31.210Z,0
2017-04-30T02:07:11.876Z,0
2017-04-30T02:07:52.518Z,0
2017-04-30T02:08:33.203Z,0
2017-04-30T02:09:13.821Z,0
2017-04-30T02:09:54.465Z,0
2017-04-30T02:10:35.118Z,0
2017-04-30T02:11:15.781Z,0
2017-04-30T02:11:56.483Z,0
2017-04-30T02:12:37.025Z,0
2017-04-30T02:13:17.748Z,0
2017-04-30T02:13:58.414Z,0
2017-04-30T02:14:39.094Z,0
2017-04-30T02:15:19.660Z,0
2017-04-30T02:16:00.350Z,0
2017-04-30T02:16:41.017Z,0
2017-04-30T02:17:21.662Z,0
2017-04-30T02:18:02.315Z,0
2017-04-30T02:18:42.972Z,0
2017-04-30T02:19:23.623Z,0
2017-04-30T02:20:04.828Z,0
2017-04-30T02:20:45.512Z,0
2017-04-30T02:21:26.165Z,0
2017-04-30T02:22:06.820Z,0
2017-04-30T02:22:48.499Z,0
2017-04-30T02:23:29.150Z,0
2017-04-30T02:24:09.806Z,0
2017-04-30T02:24:50.463Z,0
2017-04-30T02:25:31.108Z,0
2017-04-30T02:26:11.757Z,0
2017-04-30T02:26:52.314Z,0
2017-04-30T02:27:32.960Z,0
2017-04-30T02:28:13.616Z,0
2017-04-30T02:28:54.179Z,0
2017-04-30T02:29:34.852Z,0
2017-04-30T02:30:15.468Z,0
2017-04-30T02:30:56.033Z,0
2017-04-30T02:31:36.678Z,0
2017-04-30T02:32:17.319Z,0
2017-04-30T02:32:58.673Z,0
2017-04-30T02:33:39.352Z,0
2017-04-30T02:34:20.010Z,0
2017-04-30T02:35:00.653Z,0
2017-04-30T02:35:41.332Z,0
2017-04-30T02:36:21.965Z,0
2017-04-30T02:37:02.621Z,0
2017-04-30T02:37:43.265Z,0
2017-04-30T02:38:23.925Z,0
2017-04-30T02:39:04.498Z,0
2017-04-30T02:39:45.121Z,0
2017-04-30T02:40:25.781Z,0
2017-04-30T02:41:06.384Z,0
2017-04-30T02:41:47.086Z,0
2017-04-30T02:42:27.733Z,0
2017-04-30T02:43:08.381Z,0
2017-04-30T02:43:49.036Z,0
2017-04-30T02:44:29.702Z,0
2017-04-30T02:45:10.365Z,0
2017-04-30T02:45:51.008Z,0
2017-04-30T02:46:31.667Z,0
2017-04-30T02:47:12.333Z,0
2017-04-30T02:47:52.954Z,0
2017-04-30T02:48:33.613Z,0
2017-04-30T02:49:14.276Z,0
2017-04-30T02:49:54.925Z,0
2017-04-30T02:50:35.588Z,0
2017-04-30T02:51:16.216Z,0
2017-04-30T02:51:56.915Z,0
2017-04-30T02:52:37.523Z,0
2017-04-30T02:53:18.217Z,0
2017-04-30T02:53:59.645Z,0
2017-04-30T02:54:40.321Z,0
2017-04-30T02:55:20.984Z,0
2017-04-30T02:56:01.669Z,0
2017-04-30T02:56:42.364Z,0
2017-04-30T02:57:23.016Z,0
2017-04-30T02:58:03.691Z,0
2017-04-30T02:58:44.342Z,0
2017-04-30T02:59:24.984Z,0
2017-04-30T03:00:05.619Z,0
2017-04-30T03:00:46.284Z,0
2017-04-30T03:01:26.929Z,0
2017-04-30T03:02:08.731Z,0
2017-04-30T03:02:49.363Z,0
2017-04-30T03:03:30.019Z,0
2017-04-30T03:04:10.668Z,0
2017-04-30T03:04:51.332Z,0
2017-04-30T03:05:31.996Z,0
2017-04-30T03:06:12.633Z,0
2017-04-30T03:06:53.291Z,0
2017-04-30T03:07:33.967Z,0
2017-04-30T03:08:14.602Z,0
2017-04-30T03:08:55.274Z,0
2017-04-30T03:09:35.902Z,0
2017-04-30T03:10:16.554Z,0
2017-04-30T03:10:57.219Z,0
2017-04-30T03:11:37.858Z,0
2017-04-30T03:12:18.557Z,0
2017-04-30T03:12:59.134Z,0
2017-04-30T03:13:39.834Z,0
2017-04-30T03:14:20.472Z,0
2017-04-30T03:15:01.169Z,0
2017-04-30T03:15:41.745Z,0
2017-04-30T03:16:22.428Z,0
2017-04-30T03:17:03.086Z,0
2017-04-30T03:17:43.730Z,0
2017-04-30T03:18:24.396Z,0
2017-04-30T03:19:05.055Z,0
2017-04-30T03:19:45.708Z,0
2017-04-30T03:20:26.346Z,0
2017-04-30T03:21:07.004Z,0
2017-04-30T03:21:47.672Z,0
2017-04-30T03:22:28.251Z,0
2017-04-30T03:23:08.810Z,0
2017-04-30T03:23:49.514Z,0
2017-04-30T03:24:30.178Z,0
2017-04-30T03:25:10.866Z,0
2017-04-30T03:25:51.434Z,0
2017-04-30T03:26:32.135Z,0
2017-04-30T03:27:12.783Z,0
2017-04-30T03:27:53.470Z,0
2017-04-30T03:28:34.042Z,0
2017-04-30T03:29:14.733Z,0
2017-04-30T03:29:55.394Z,0
2017-04-30T03:30:36.084Z,0
2017-04-30T03:31:16.688Z,0
2017-04-30T03:31:58.443Z,0
2017-04-30T03:32:39.133Z,0
2017-04-30T03:33:19.822Z,0
2017-04-30T03:34:00.392Z,0
2017-04-30T03:34:41.088Z,0
2017-04-30T03:35:21.738Z,0
2017-04-30T03:36:02.437Z,0
2017-04-30T03:36:45.096Z,0
2017-04-30T03:37:25.746Z,0
2017-04-30T03:38:06.398Z,0
2017-04-30T03:38:47.055Z,0
2017-04-30T03:39:27.701Z,0
2017-04-30T03:40:08.368Z,0
2017-04-30T03:40:49.008Z,0
2017-04-30T03:41:29.665Z,0
2017-04-30T03:42:10.319Z,0
2017-04-30T03:42:50.967Z,0
2017-04-30T03:43:31.626Z,0
2017-04-30T03:44:12.297Z,0
2017-04-30T03:44:53.709Z,0
2017-04-30T03:45:34.400Z,0
2017-04-30T03:46:15.092Z,0
2017-04-30T03:46:55.667Z,0
2017-04-30T03:47:36.357Z,0
2017-04-30T03:48:17.011Z,0
2017-04-30T03:48:57.708Z,0
2017-04-30T03:49:38.309Z,0
2017-04-30T03:50:18.973Z,0
2017-04-30T03:50:59.639Z,0
2017-04-30T03:51:40.317Z,0
2017-04-30T03:52:20.911Z,0
2017-04-30T03:53:01.574Z,0
2017-04-30T03:53:42.230Z,0
2017-04-30T03:54:24.880Z,0
2017-04-30T03:55:05.443Z,0
2017-04-30T03:55:46.145Z,0
2017-04-30T03:56:26.794Z,0
2017-04-30T03:57:08.465Z,0
2017-04-30T03:57:49.126Z,0
2017-04-30T03:58:31.830Z,0
2017-04-30T03:59:12.479Z,5
2017-04-30T03:59:53.132Z,5
2017-04-30T04:00:35.838Z,5
2017-04-30T04:01:16.488Z,5
2017-04-30T04:01:58.167Z,5
2017-04-30T04:02:38.820Z,5
2017-04-30T04:03:19.461Z,5
2017-04-30T04:04:00.122Z,5
2017-04-30T04:04:40.814Z,5
2017-04-30T04:05:21.527Z,5
2017-04-30T04:06:04.228Z,5
2017-04-30T04:06:44.885Z,5
2017-04-30T04:07:26.555Z,5
2017-04-30T04:08:07.223Z,10
2017-04-30T04:08:47.856Z,10
2017-04-30T04:09:28.524Z,10
2017-04-30T04:10:09.157Z,10
2017-04-30T04:10:49.829Z,10
2017-04-30T04:11:30.465Z,10
2017-04-30T04:12:13.178Z,10
2017-04-30T04:12:53.832Z,10
2017-04-30T04:13:34.491Z,10
2017-04-30T04:14:15.125Z,10
2017-04-30T04:14:55.791Z,15
2017-04-30T04:15:36.438Z,15
2017-04-30T04:16:17.054Z,15
2017-04-30T04:16:57.758Z,15
2017-04-30T04:17:38.411Z,15
2017-04-30T04:18:18.978Z,15
2017-04-30T04:19:00.613Z,15
2017-04-30T04:19:41.274Z,15
2017-04-30T04:20:21.842Z,15
2017-04-30T04:21:02.485Z,20
2017-04-30T04:21:43.124Z,20
2017-04-30T04:22:23.785Z,20
2017-04-30T04:23:04.443Z,20
2017-04-30T04:23:45.084Z,20
2017-04-30T04:24:25.748Z,20
2017-04-30T04:25:06.402Z,20
2017-04-30T04:25:47.054Z,20
2017-04-30T04:26:27.697Z,25
2017-04-30T04:27:08.392Z,25
2017-04-30T04:27:48.950Z,25
2017-04-30T04:28:29.690Z,25
2017-04-30T04:29:10.317Z,25
2017-04-30T04:29:51.005Z,25
2017-04-30T04:30:31.563Z,25
2017-04-30T04:31:12.284Z,25
2017-04-30T04:31:52.929Z,30
2017-04-30T04:32:33.576Z,30
2017-04-30T04:33:14.237Z,30
2017-04-30T04:33:54.878Z,30
2017-04-30T04:34:35.534Z,30
2017-04-30T04:35:16.190Z,30
2017-04-30T04:35:56.848Z,30
2017-04-30T04:36:37.495Z,35
2017-04-30T04:37:18.148Z,35
2017-04-30T04:37:58.799Z,35
2017-04-30T04:38:39.457Z,35
2017-04-30T04:39:20.108Z,35
2017-04-30T04:40:00.761Z,35
2017-04-30T04:40:41.413Z,35
2017-04-30T04:41:22.070Z,40
2017-04-30T04:42:02.723Z,40
2017-04-30T04:42:43.372Z,40
2017-04-30T04:43:24.033Z,40
2017-04-30T04:44:04.715Z,40
2017-04-30T04:44:45.432Z,40
2017-04-30T04:45:26.084Z,40
2017-04-30T04:46:06.757Z,40
2017-04-30T04:46:47.400Z,45
2017-04-30T04:47:28.042Z,45
2017-04-30T04:48:08.706Z,45
2017-04-30T04:48:49.353Z,45
2017-04-30T04:49:30.008Z,45
2017-04-30T04:50:10.666Z,45
2017-04-30T04:50:51.309Z,45
2017-04-30T04:51:31.964Z,50
2017-04-30T04:52:12.622Z,50
2017-04-30T04:52:53.266Z,50
2017-04-30T04:53:33.924Z,50
2017-04-30T04:54:14.577Z,50
2017-04-30T04:54:55.240Z,50
2017-04-30T04:55:35.878Z,50
2017-04-30T04:56:16.578Z,50
2017-04-30T04:56:57.144Z,55
2017-04-30T04:57:37.884Z,55
2017-04-30T04:58:18.600Z,55
2017-04-30T04:58:59.291Z,55
2017-04-30T04:59:39.876Z,55
2017-04-30T05:00:20.562Z,55
2017-04-30T05:01:01.223Z,55
2017-04-30T05:01:41.904Z,55
2017-04-30T05:02:22.478Z,60
2017-04-30T05:03:03.172Z,60
2017-04-30T05:03:43.829Z,60
2017-04-30T05:04:24.519Z,60
2017-04-30T05:05:05.085Z,60
2017-04-30T05:05:45.771Z,60
2017-04-30T05:06:26.428Z,60
2017-04-30T05:07:06.976Z,60
2017-04-30T05:07:47.627Z,65
2017-04-30T05:08:28.311Z,65
2017-04-30T05:09:08.863Z,65
2017-04-30T05:09:49.493Z,65
2017-04-30T05:10:30.155Z,65
2017-04-30T05:11:10.728Z,65
2017-04-30T05:11:51.445Z,65
2017-04-30T05:12:32.100Z,65
2017-04-30T05:13:12.753Z,65
2017-04-30T05:13:53.425Z,70
2017-04-30T05:14:34.056Z,70
2017-04-30T05:15:14.741Z,70
2017-04-30T05:15:55.409Z,70
2017-04-30T05:16:36.017Z,70
2017-04-30T05:17:16.678Z,70
2017-04-30T05:17:57.335Z,70
2017-04-30T05:18:38.000Z,70
2017-04-30T05:19:18.649Z,70
2017-04-30T05:19:59.284Z,70
2017-04-30T05:20:39.934Z,75
2017-04-30T05:21:20.510Z,75
2017-04-30T05:22:01.138Z,75
2017-04-30T05:22:41.799Z,75
2017-04-30T05:23:22.383Z,75
2017-04-30T05:24:03.131Z,75
2017-04-30T05:24:43.866Z,75
2017-04-30T05:25:24.429Z,75
2017-04-30T05:26:05.004Z,75
2017-04-30T05:26:45.563Z,75
2017-04-30T05:27:26.113Z,75
2017-04-30T05:28:06.689Z,75
2017-04-30T05:28:47.359Z,80
2017-04-30T05:29:28.039Z,80
2017-04-30T05:30:08.636Z,80
2017-04-30T05:30:49.318Z,80
2017-04-30T05:31:29.984Z,80
2017-04-30T05:32:10.621Z,80
2017-04-30T05:32:51.326Z,80
2017-04-30T05:33:31.980Z,80
2017-04-30T05:34:12.647Z,80
2017-04-30T05:34:53.388Z,80
2017-04-30T05:35:34.039Z,80
2017-04-30T05:36:14.614Z,85
2017-04-30T05:36:55.296Z,85
2017-04-30T05:37:35.955Z,85
2017-04-30T05:38:17.680Z,85
2017-04-30T05:38:58.252Z,85
2017-04-30T05:39:38.970Z,85
2017-04-30T05:40:19.709Z,85
2017-04-30T05:41:00.393Z,85
2017-04-30T05:41:41.145Z,85
2017-04-30T05:42:21.814Z,85
2017-04-30T05:43:02.566Z,85
2017-04-30T05:43:43.314Z,85
2017-04-30T05:44:24.064Z,85
2017-04-30T05:45:04.719Z,90
2017-04-30T05:45:45.372Z,90
2017-04-30T05:46:25.945Z,90
2017-04-30T05:47:06.664Z,90
2017-04-30T05:47:47.227Z,90
2017-04-30T05:48:27.934Z,90
2017-04-30T05:49:08.587Z,90
2017-04-30T05:49:49.144Z,90
2017-04-30T05:50:29.813Z,90
2017-04-30T05:51:10.567Z,90
2017-04-30T05:51:51.248Z,90
2017-04-30T05:52:31.821Z,95
2017-04-30T05:53:12.503Z,95
2017-04-30T05:53:53.179Z,95
2017-04-30T05:54:33.862Z,95
2017-04-30T05:55:14.433Z,95
2017-04-30T05:55:55.189Z,95
2017-04-30T05:56:35.893Z,95
2017-04-30T05:57:16.547Z,95
2017-04-30T05:57:57.185Z,95
2017-04-30T05:58:37.863Z,95
2017-04-30T05:59:18.596Z,95
2017-04-30T05:59:59.242Z,95
2017-04-30T06:00:39.906Z,95
2017-04-30T06:01:20.552Z,95
2017-04-30T06:02:01.214Z,95
2017-04-30T06:02:41.957Z,100
2017-04-30T06:03:22.629Z,100
2017-04-30T06:04:03.367Z,100
2017-04-30T06:04:44.032Z,100
2017-04-30T06:05:24.782Z,100
2017-04-30T06:06:05.536Z,100
2017-04-30T06:06:46.193Z,100
2017-04-30T06:07:26.838Z,100
2017-04-30T06:08:07.505Z,100
2017-04-30T06:08:48.243Z,100
2017-04-30T06:09:29.111Z,100
2017-04-30T06:10:09.765Z,100
2017-04-30T06:10:50.417Z,100
2017-04-30T06:11:31.066Z,100
2017-04-30T06:12:11.728Z,100
2017-04-30T06:12:52.477Z,105
2017-04-30T06:13:33.294Z,105
2017-04-30T06:14:13.998Z,105
2017-04-30T06:14:54.778Z,105
2017-04-30T06:15:35.515Z,105
2017-04-30T06:16:16.094Z,105
2017-04-30T06:16:56.799Z,105
2017-04-30T06:17:37.459Z,105
2017-04-30T06:18:18.209Z,110
2017-04-30T06:18:58.855Z,110
2017-04-30T06:19:39.620Z,110
2017-04-30T06:20:20.391Z,110
2017-04-30T06:21:01.132Z,110
2017-04-30T06:21:41.819Z,110
2017-04-30T06:22:22.379Z,110
2017-04-30T06:23:03.153Z,110
2017-04-30T06:23:43.841Z,110
2017-04-30T06:24:24.543Z,110
2017-04-30T06:25:05.124Z,110
2017-04-30T06:25:45.907Z,110
2017-04-30T06:26:26.570Z,110
2017-04-30T07:06:54.069Z,115
2017-04-30T07:07:34.726Z,115
2017-04-30T07:08:15.384Z,115
2017-04-30T07:08:56.131Z,115
2017-04-30T07:09:36.889Z,120
2017-04-30T07:10:17.645Z,120
2017-04-30T07:10:58.406Z,120
2017-04-30T07:11:39.160Z,120
2017-04-30T07:12:19.806Z,120
2017-04-30T07:13:00.461Z,120
2017-04-30T07:13:41.020Z,120
2017-04-30T07:14:21.766Z,120
2017-04-30T07:15:02.530Z,120
2017-04-30T07:15:43.278Z,120
2017-04-30T07:16:24.023Z,120
2017-04-30T07:17:04.780Z,120
2017-04-30T07:17:46.450Z,120
2017-04-30T07:18:27.116Z,120
2017-04-30T07:19:07.863Z,120
2017-04-30T07:19:48.618Z,120
2017-04-30T07:20:30.283Z,120
2017-04-30T07:21:10.943Z,120
2017-04-30T07:21:51.601Z,120
2017-04-30T07:22:32.295Z,120
2017-04-30T07:23:12.864Z,120
2017-04-30T07:23:55.611Z,120
2017-04-30T07:24:36.268Z,120
2017-04-30T07:25:17.987Z,120
2017-04-30T07:25:58.557Z,120
2017-04-30T07:26:39.282Z,120
2017-04-30T07:27:21.060Z,125
2017-04-30T07:28:03.731Z,125
2017-04-30T07:28:45.415Z,125
2017-04-30T07:29:28.142Z,125
2017-04-30T07:30:08.872Z,125
2017-04-30T07:30:49.621Z,125
2017-04-30T07:31:30.273Z,125
2017-04-30T07:32:10.926Z,125
2017-04-30T07:32:51.681Z,125
2017-04-30T07:33:32.442Z,125
2017-04-30T07:34:13.212Z,125
2017-04-30T07:34:54.986Z,125
2017-04-30T07:35:35.727Z,125
2017-04-30T07:36:16.476Z,125
2017-04-30T07:36:57.142Z,125
2017-04-30T07:37:38.818Z,125
2017-04-30T07:38:19.567Z,125
2017-04-30T07:39:00.334Z,125
2017-04-30T07:39:41.085Z,125
2017-04-30T07:40:21.843Z,125
2017-04-30T07:41:03.524Z,125
2017-04-30T07:41:44.272Z,125
2017-04-30T07:42:25.951Z,125
2017-04-30T07:43:06.709Z,125
2017-04-30T07:43:47.969Z,125
2017-04-30T07:44:28.720Z,125
2017-04-30T07:45:09.485Z,125
2017-04-30T07:45:50.254Z,125
2017-04-30T07:46:31.018Z,125
2017-04-30T07:47:11.761Z,125
2017-04-30T07:47:52.562Z,125
2017-04-30T07:48:33.256Z,125
2017-04-30T07:49:14.011Z,125
2017-04-30T07:49:54.774Z,125
2017-04-30T07:50:36.450Z,125
2017-04-30T07:51:17.214Z,130
2017-04-30T07:51:57.961Z,125
2017-04-30T07:52:43.322Z,125
2017-04-30T07:53:24.079Z,125
2017-04-30T07:54:05.742Z,125
2017-04-30T07:54:46.505Z,125
2017-04-30T07:55:27.270Z,125
2017-04-30T07:56:12.830Z,125
2017-04-30T07:56:53.552Z,125
2017-04-30T07:57:34.123Z,125
2017-04-30T07:58:14.686Z,125
2017-04-30T07:58:56.367Z,125
2017-04-30T07:59:37.050Z,125
2017-04-30T08:00:17.615Z,125
2017-04-30T08:00:58.850Z,125
2017-04-30T08:01:40.620Z,125
2017-04-30T08:02:22.289Z,125
2017-04-30T08:03:03.045Z,125
2017-04-30T08:03:43.799Z,125
2017-04-30T08:04:24.559Z,125
2017-04-30T08:05:05.362Z,125
2017-04-30T08:05:47.097Z,120
2017-04-30T08:06:27.654Z,120
2017-04-30T08:07:09.421Z,120
2017-04-30T08:07:50.212Z,125
2017-04-30T08:08:30.798Z,125
2017-04-30T08:09:12.496Z,125
2017-04-30T08:09:53.073Z,125
2017-04-30T08:10:34.834Z,125
2017-04-30T08:11:15.531Z,125
2017-04-30T08:11:56.139Z,125
2017-04-30T08:12:36.796Z,125
2017-04-30T08:13:17.558Z,125
2017-04-30T08:13:58.354Z,125
2017-04-30T08:14:38.930Z,125
2017-04-30T08:15:19.635Z,125
2017-04-30T08:16:00.367Z,125
2017-04-30T08:16:40.936Z,125
2017-04-30T08:17:21.679Z,125
2017-04-30T08:18:02.426Z,125
2017-04-30T08:18:42.982Z,125
2017-04-30T08:19:23.736Z,125
2017-04-30T08:20:04.506Z,125
2017-04-30T08:20:45.084Z,125
2017-04-30T08:21:27.744Z,125
2017-04-30T08:22:08.391Z,125
2017-04-30T08:22:49.196Z,125
2017-04-30T08:23:29.823Z,125
2017-04-30T08:24:10.576Z,125
2017-04-30T08:24:51.313Z,125
2017-04-30T08:25:32.014Z,125
2017-04-30T08:26:12.582Z,125
2017-04-30T08:26:53.315Z,125
2017-04-30T08:27:34.037Z,125
2017-04-30T08:28:14.786Z,125
2017-04-30T08:28:55.560Z,125
2017-04-30T08:29:36.302Z,125
2017-04-30T08:30:17.060Z,125
2017-04-30T08:30:57.832Z,125
2017-04-30T08:31:39.605Z,125
2017-04-30T08:32:20.500Z,120
2017-04-30T08:33:01.208Z,125
2017-04-30T08:33:41.956Z,125
2017-04-30T08:34:22.718Z,125
2017-04-30T08:35:03.471Z,125
2017-04-30T08:35:44.221Z,125
2017-04-30T08:36:24.979Z,125
2017-04-30T08:37:05.674Z,125
2017-04-30T08:37:46.248Z,125
2017-04-30T08:38:26.930Z,125
2017-04-30T08:39:07.692Z,125
2017-04-30T08:39:48.391Z,125
2017-04-30T08:40:28.998Z,125
2017-04-30T08:41:09.778Z,125
2017-04-30T08:41:50.626Z,125
2017-04-30T08:42:31.385Z,125
2017-04-30T08:43:12.165Z,130
2017-04-30T08:43:52.874Z,130
2017-04-30T08:44:33.635Z,130
2017-04-30T08:45:14.402Z,130
2017-04-30T08:45:55.153Z,130
2017-04-30T08:46:35.894Z,130
2017-04-30T08:47:16.496Z,130
2017-04-30T08:47:57.226Z,130
2017-04-30T08:48:37.788Z,130
2017-04-30T08:49:18.330Z,130
2017-04-30T08:49:58.890Z,130
2017-04-30T08:50:39.452Z,130
2017-04-30T08:51:20.160Z,130
2017-04-30T08:52:00.734Z,125
2017-04-30T08:52:42.405Z,125
2017-04-30T08:53:23.078Z,125
2017-04-30T08:54:03.748Z,125
2017-04-30T08:54:44.314Z,125
2017-04-30T08:55:25.001Z,125
2017-04-30T08:56:05.658Z,125
2017-04-30T08:56:46.360Z,125
2017-04-30T08:57:26.996Z,125
2017-04-30T08:58:07.631Z,125
2017-04-30T08:58:48.376Z,125
2017-04-30T08:59:29.042Z,125
2017-04-30T09:00:09.700Z,125
2017-04-30T09:02:38.456Z,125
2017-04-30T09:03:19.157Z,125
2017-04-30T09:04:01.813Z,125
2017-04-30T09:04:42.464Z,125
2017-04-30T09:05:24.149Z,125
2017-04-30T09:06:05.823Z,125
2017-04-30T09:06:46.575Z,125
2017-04-30T09:07:28.266Z,125
2017-04-30T09:08:08.923Z,120
2017-04-30T09:08:49.711Z,120
2017-04-30T09:09:31.337Z,125
2017-04-30T09:10:12.016Z,125
2017-04-30T09:10:52.657Z,125
2017-04-30T09:11:33.336Z,125
2017-04-30T09:12:13.980Z,125
2017-04-30T09:12:54.613Z,125
2017-04-30T09:13:35.264Z,125
2017-04-30T09:14:16.830Z,125
2017-04-30T09:14:57.487Z,125
2017-04-30T09:15:38.138Z,125
2017-04-30T09:16:18.796Z,125
2017-04-30T09:17:01.388Z,125
2017-04-30T09:17:42.059Z,125
2017-04-30T09:18:22.695Z,125
2017-04-30T09:19:03.354Z,125
2017-04-30T09:19:44.012Z,125
2017-04-30T09:20:24.651Z,125
2017-04-30T09:21:05.317Z,125
2017-04-30T09:21:45.917Z,125
2017-04-30T09:22:26.476Z,125
2017-04-30T09:23:07.065Z,125
2017-04-30T09:23:47.636Z,125
2017-04-30T09:24:28.298Z,125
2017-04-30T09:25:09.028Z,125
2017-04-30T09:25:49.629Z,125
2017-04-30T09:26:36.293Z,125
2017-04-30T09:27:16.942Z,125
2017-04-30T09:27:57.574Z,125
2017-04-30T09:28:38.224Z,125
2017-04-30T09:29:19.906Z,120
2017-04-30T09:30:01.586Z,120
2017-04-30T09:30:42.234Z,120
2017-04-30T09:31:22.902Z,120
2017-04-30T09:32:03.470Z,120
2017-04-30T09:32:44.099Z,120
2017-04-30T09:33:24.757Z,120
2017-04-30T09:34:06.417Z,120
2017-04-30T09:34:47.078Z,120
2017-04-30T09:35:27.721Z,115
2017-04-30T09:36:08.373Z,115
2017-04-30T09:36:49.361Z,115
2017-04-30T09:37:30.779Z,115
2017-04-30T09:38:11.450Z,115
2017-04-30T09:38:52.112Z,120
2017-04-30T09:39:32.756Z,120
2017-04-30T09:40:13.418Z,120
2017-04-30T09:40:54.112Z,120
2017-04-30T09:41:34.765Z,120
2017-04-30T09:42:15.323Z,120
2017-04-30T09:42:55.955Z,120
2017-04-30T09:43:36.535Z,115
2017-04-30T09:44:17.137Z,120
2017-04-30T09:44:57.780Z,120
2017-04-30T09:45:38.359Z,120
2017-04-30T09:46:18.983Z,120
2017-04-30T09:46:59.637Z,120
2017-04-30T09:47:40.232Z,120
2017-04-30T09:48:20.800Z,120
2017-04-30T09:49:01.392Z,120
2017-04-30T09:49:42.047Z,120
2017-04-30T09:50:22.637Z,120
2017-04-30T09:51:03.498Z,115
2017-04-30T09:51:44.055Z,115
2017-04-30T09:52:24.650Z,115
2017-04-30T09:53:05.307Z,115
2017-04-30T09:53:46.008Z,115
2017-04-30T09:54:26.567Z,115
2017-04-30T09:55:07.165Z,115
2017-04-30T09:55:47.823Z,115
2017-04-30T09:56:28.515Z,115
2017-04-30T09:57:09.069Z,115
2017-04-30T09:57:49.640Z,115
2017-04-30T09:58:30.331Z,115
2017-04-30T09:59:11.111Z,115
2017-04-30T09:59:51.671Z,115
2017-04-30T10:00:32.368Z,115
2017-04-30T10:01:13.125Z,115
2017-04-30T10:01:53.823Z,115
2017-04-30T10:02:34.391Z,115
2017-04-30T10:03:15.096Z,115
2017-04-30T10:03:55.857Z,115
2017-04-30T10:04:36.642Z,115
2017-04-30T10:05:17.198Z,115
2017-04-30T10:05:57.909Z,115
2017-04-30T10:06:38.559Z,115
2017-04-30T10:07:19.358Z,115
2017-04-30T10:07:59.922Z,115
2017-04-30T10:08:40.619Z,115
2017-04-30T10:09:21.376Z,110
2017-04-30T10:10:02.073Z,110
2017-04-30T10:10:42.634Z,110
2017-04-30T10:11:23.354Z,110
2017-04-30T10:12:04.089Z,110
2017-04-30T10:12:44.845Z,110
2017-04-30T10:13:25.605Z,110
2017-04-30T10:14:06.355Z,110
2017-04-30T10:14:46.925Z,110
2017-04-30T10:15:27.653Z,110
2017-04-30T10:16:08.483Z,115
2017-04-30T10:16:49.172Z,115
2017-04-30T10:17:29.968Z,115
2017-04-30T10:18:10.679Z,115
2017-04-30T10:18:51.455Z,115
2017-04-30T10:19:32.031Z,115
2017-04-30T10:20:13.782Z,115
2017-04-30T10:20:54.526Z,115
2017-04-30T10:21:35.168Z,115
2017-04-30T10:22:15.932Z,115
2017-04-30T10:22:56.500Z,115
2017-04-30T10:23:37.256Z,115
2017-04-30T10:24:18.036Z,115